JST9031 YBCS-YPDN
Flight info
| Callsign | JST9031 |
|---|---|
| Flight time | 2h 16m |
| Altitude | 30000 |
| Route | CS J61 DUMAV Q91 ALLEE Q23 DN |
| Aircraft | A320/M-SDE3FGHIRWY/LB1 |
Departure
| Time | 2026-04-27 11:41 |
|---|---|
| Airport | Cairns International Airport (YBCS) |
Arrival
| Time | 2026-04-27 13:58 |
|---|---|
| Airport | Darwin International Airport / RAAF Darwin (YPDN) |
| Time | Latitude | Longitude | Altitude | Speed | Heading |
|---|---|---|---|---|---|
| 2026-04-27 11:19 | -16.87662 | 145.75249 | 18 ft | 0 kts | 66° |
| 2026-04-27 11:26 | -16.87663 | 145.75246 | 16 ft | 2 kts | 67° |
| 2026-04-27 11:26 | -16.87670 | 145.75229 | 16 ft | 3 kts | 71° |
| 2026-04-27 11:26 | -16.87676 | 145.75208 | 16 ft | 3 kts | 77° |
| 2026-04-27 11:26 | -16.87680 | 145.75188 | 16 ft | 3 kts | 85° |
| 2026-04-27 11:27 | -16.87680 | 145.75167 | 16 ft | 3 kts | 97° |
| 2026-04-27 11:27 | -16.87675 | 145.75147 | 16 ft | 3 kts | 121° |
| 2026-04-27 11:27 | -16.87666 | 145.75135 | 16 ft | 1 kts | 155° |
| 2026-04-27 11:27 | -16.87664 | 145.75134 | 17 ft | 0 kts | 156° |
| 2026-04-27 11:35 | -16.87666 | 145.75135 | 16 ft | 2 kts | 156° |
| 2026-04-27 11:35 | -16.87717 | 145.75158 | 16 ft | 14 kts | 156° |
| 2026-04-27 11:35 | -16.87812 | 145.75201 | 16 ft | 16 kts | 156° |
| 2026-04-27 11:36 | -16.87901 | 145.75187 | 16 ft | 13 kts | 240° |
| 2026-04-27 11:36 | -16.87849 | 145.75118 | 18 ft | 14 kts | 335° |
| 2026-04-27 11:36 | -16.87752 | 145.75074 | 17 ft | 16 kts | 338° |
| 2026-04-27 11:36 | -16.87650 | 145.75034 | 16 ft | 14 kts | 340° |
| 2026-04-27 11:37 | -16.87556 | 145.74994 | 17 ft | 15 kts | 337° |
| 2026-04-27 11:37 | -16.87462 | 145.74951 | 10 ft | 15 kts | 337° |
| 2026-04-27 11:37 | -16.87362 | 145.74906 | 1 ft | 11 kts | 337° |
| 2026-04-27 11:37 | -16.87283 | 145.74871 | 1 ft | 13 kts | 336° |
| 2026-04-27 11:38 | -16.87228 | 145.74846 | -2 ft | 13 kts | 336° |
| 2026-04-27 11:38 | -16.87143 | 145.74807 | -2 ft | 14 kts | 336° |
| 2026-04-27 11:38 | -16.87084 | 145.74780 | -2 ft | 0 kts | 335° |
| 2026-04-27 11:38 | -16.87078 | 145.74776 | -2 ft | 3 kts | 333° |
| 2026-04-27 11:39 | -16.87053 | 145.74748 | -2 ft | 7 kts | 298° |
| 2026-04-27 11:39 | -16.87049 | 145.74709 | -1 ft | 3 kts | 261° |
| 2026-04-27 11:39 | -16.87052 | 145.74701 | 0 ft | 0 kts | 250° |
| 2026-04-27 11:40 | -16.87054 | 145.74695 | 0 ft | 4 kts | 248° |
| 2026-04-27 11:40 | -16.87107 | 145.74617 | 0 ft | 15 kts | 202° |
| 2026-04-27 11:40 | -16.87210 | 145.74638 | 2 ft | 24 kts | 155° |
| 2026-04-27 11:41 | -16.87591 | 145.74811 | 19 ft | 92 kts | 156° |
| 2026-04-27 11:41 | -16.88347 | 145.75155 | 18 ft | 142 kts | 156° |
| 2026-04-27 11:41 | -16.89358 | 145.75616 | 283 ft | 161 kts | 156° |
| 2026-04-27 11:41 | -16.90369 | 145.76085 | 1038 ft | 159 kts | 156° |
| 2026-04-27 11:42 | -16.91380 | 145.76548 | 1710 ft | 159 kts | 157° |
| 2026-04-27 11:42 | -16.92439 | 145.77025 | 2123 ft | 176 kts | 158° |
| 2026-04-27 11:42 | -16.93611 | 145.77556 | 2533 ft | 192 kts | 154° |
| 2026-04-27 11:42 | -16.94668 | 145.78517 | 2857 ft | 218 kts | 122° |
| 2026-04-27 11:43 | -16.95076 | 145.80140 | 3341 ft | 248 kts | 92° |
| 2026-04-27 11:43 | -16.94561 | 145.81905 | 4186 ft | 264 kts | 62° |
| 2026-04-27 11:43 | -16.93220 | 145.83286 | 5098 ft | 281 kts | 34° |
| 2026-04-27 11:43 | -16.91344 | 145.83959 | 5731 ft | 292 kts | 9° |
| 2026-04-27 11:44 | -16.89301 | 145.83930 | 5942 ft | 296 kts | 357° |
| 2026-04-27 11:44 | -16.87253 | 145.83741 | 6318 ft | 295 kts | 356° |
| 2026-04-27 11:44 | -16.85208 | 145.83522 | 7206 ft | 296 kts | 357° |
| 2026-04-27 11:44 | -16.83144 | 145.83291 | 8041 ft | 301 kts | 356° |
| 2026-04-27 11:45 | -16.81057 | 145.83050 | 8891 ft | 303 kts | 357° |
| 2026-04-27 11:45 | -16.78948 | 145.82817 | 9728 ft | 306 kts | 358° |
| 2026-04-27 11:45 | -16.76822 | 145.82576 | 10265 ft | 320 kts | 356° |
| 2026-04-27 11:45 | -16.74521 | 145.82360 | 10464 ft | 343 kts | 356° |
| 2026-04-27 11:46 | -16.72062 | 145.82148 | 10599 ft | 366 kts | 356° |
| 2026-04-27 11:46 | -16.69444 | 145.81942 | 10714 ft | 387 kts | 356° |
| 2026-04-27 11:46 | -16.66683 | 145.81736 | 10896 ft | 405 kts | 356° |
| 2026-04-27 11:46 | -16.63874 | 145.81366 | 11375 ft | 410 kts | 344° |
| 2026-04-27 11:47 | -16.61251 | 145.80216 | 11920 ft | 410 kts | 327° |
| 2026-04-27 11:47 | -16.59089 | 145.78305 | 12566 ft | 406 kts | 309° |
| 2026-04-27 11:47 | -16.57581 | 145.75843 | 13191 ft | 403 kts | 292° |
| 2026-04-27 11:47 | -16.56837 | 145.73042 | 13794 ft | 401 kts | 275° |
| 2026-04-27 11:48 | -16.56869 | 145.70147 | 14328 ft | 401 kts | 264° |
| 2026-04-27 11:48 | -16.57109 | 145.67243 | 14828 ft | 403 kts | 264° |
| 2026-04-27 11:48 | -16.57348 | 145.64321 | 15290 ft | 406 kts | 265° |
| 2026-04-27 11:48 | -16.57587 | 145.61382 | 15750 ft | 409 kts | 265° |
| 2026-04-27 11:49 | -16.57824 | 145.58420 | 16205 ft | 412 kts | 265° |
| 2026-04-27 11:49 | -16.58061 | 145.55437 | 16656 ft | 414 kts | 265° |
| 2026-04-27 11:49 | -16.58296 | 145.52470 | 17105 ft | 417 kts | 265° |
| 2026-04-27 11:49 | -16.58534 | 145.49443 | 17580 ft | 419 kts | 265° |
| 2026-04-27 11:50 | -16.58772 | 145.46401 | 18036 ft | 421 kts | 265° |
| 2026-04-27 11:50 | -16.59008 | 145.43347 | 18454 ft | 424 kts | 265° |
| 2026-04-27 11:50 | -16.59245 | 145.40272 | 18826 ft | 427 kts | 265° |
| 2026-04-27 11:50 | -16.59486 | 145.37176 | 19200 ft | 429 kts | 265° |
| 2026-04-27 11:51 | -16.59732 | 145.34059 | 19582 ft | 432 kts | 265° |
| 2026-04-27 11:51 | -16.59980 | 145.30927 | 19957 ft | 435 kts | 265° |
| 2026-04-27 11:51 | -16.60476 | 145.24627 | 20676 ft | 441 kts | 265° |
| 2026-04-27 11:52 | -16.60729 | 145.21425 | 20893 ft | 447 kts | 265° |
| 2026-04-27 11:52 | -16.60982 | 145.18168 | 21192 ft | 450 kts | 265° |
| 2026-04-27 11:52 | -16.61232 | 145.14906 | 21471 ft | 454 kts | 265° |
| 2026-04-27 11:52 | -16.61483 | 145.11607 | 21746 ft | 456 kts | 265° |
| 2026-04-27 11:53 | -16.61734 | 145.08297 | 22026 ft | 459 kts | 265° |
| 2026-04-27 11:53 | -16.61990 | 145.04976 | 22310 ft | 461 kts | 265° |
| 2026-04-27 11:53 | -16.62247 | 145.01636 | 22590 ft | 463 kts | 265° |
| 2026-04-27 11:53 | -16.62506 | 144.98280 | 22861 ft | 465 kts | 265° |
| 2026-04-27 11:54 | -16.62764 | 144.94946 | 23146 ft | 467 kts | 265° |
| 2026-04-27 11:54 | -16.62857 | 144.91564 | 23552 ft | 467 kts | 272° |
| 2026-04-27 11:54 | -16.62434 | 144.88209 | 23931 ft | 466 kts | 282° |
| 2026-04-27 11:54 | -16.61599 | 144.84945 | 24334 ft | 465 kts | 285° |
| 2026-04-27 11:55 | -16.60737 | 144.81710 | 24785 ft | 462 kts | 284° |
| 2026-04-27 11:55 | -16.59883 | 144.78489 | 25256 ft | 460 kts | 284° |
| 2026-04-27 11:55 | -16.59038 | 144.75281 | 25745 ft | 457 kts | 284° |
| 2026-04-27 11:55 | -16.58202 | 144.72098 | 26248 ft | 454 kts | 284° |
| 2026-04-27 11:56 | -16.57371 | 144.68934 | 26772 ft | 451 kts | 284° |
| 2026-04-27 11:56 | -16.56541 | 144.65787 | 27312 ft | 448 kts | 284° |
| 2026-04-27 11:56 | -16.55713 | 144.62661 | 27861 ft | 445 kts | 284° |
| 2026-04-27 11:56 | -16.54889 | 144.59568 | 28431 ft | 442 kts | 284° |
| 2026-04-27 11:57 | -16.54069 | 144.56491 | 29014 ft | 439 kts | 284° |
| 2026-04-27 11:57 | -16.53256 | 144.53439 | 29600 ft | 436 kts | 284° |
| 2026-04-27 11:57 | -16.52447 | 144.50403 | 29953 ft | 434 kts | 284° |
| 2026-04-27 11:58 | -16.50832 | 144.44333 | 30008 ft | 441 kts | 284° |
| 2026-04-27 11:58 | -16.49186 | 144.38154 | 30013 ft | 442 kts | 284° |
| 2026-04-27 11:59 | -16.47538 | 144.31978 | 30005 ft | 442 kts | 284° |
| 2026-04-27 11:59 | -16.45894 | 144.25808 | 30006 ft | 442 kts | 284° |
| 2026-04-27 12:00 | -16.44249 | 144.19639 | 30003 ft | 441 kts | 283° |
| 2026-04-27 12:00 | -16.42599 | 144.13488 | 29991 ft | 441 kts | 283° |
| 2026-04-27 12:01 | -16.40947 | 144.07343 | 30001 ft | 440 kts | 283° |
| 2026-04-27 12:01 | -16.39312 | 144.01230 | 29986 ft | 440 kts | 283° |
| 2026-04-27 12:02 | -16.37665 | 143.95086 | 29991 ft | 440 kts | 283° |
| 2026-04-27 12:02 | -16.36009 | 143.88943 | 29984 ft | 440 kts | 284° |
| 2026-04-27 12:03 | -16.34353 | 143.82798 | 29986 ft | 440 kts | 283° |
| 2026-04-27 12:03 | -16.32694 | 143.76652 | 29980 ft | 441 kts | 283° |
| 2026-04-27 12:04 | -16.31038 | 143.70508 | 29978 ft | 440 kts | 283° |
| 2026-04-27 12:04 | -16.29389 | 143.64423 | 29990 ft | 439 kts | 283° |
| 2026-04-27 12:05 | -16.27734 | 143.58313 | 29995 ft | 438 kts | 283° |
| 2026-04-27 12:05 | -16.26083 | 143.52206 | 29985 ft | 438 kts | 283° |
| 2026-04-27 12:06 | -16.24430 | 143.46113 | 29984 ft | 437 kts | 283° |
| 2026-04-27 12:06 | -16.22776 | 143.40018 | 29982 ft | 437 kts | 283° |
| 2026-04-27 12:07 | -16.21117 | 143.33944 | 29967 ft | 436 kts | 283° |
| 2026-04-27 12:07 | -16.19463 | 143.27875 | 29963 ft | 436 kts | 283° |
| 2026-04-27 12:08 | -16.17818 | 143.21841 | 29968 ft | 435 kts | 282° |
| 2026-04-27 12:08 | -16.16166 | 143.15788 | 29976 ft | 434 kts | 282° |
| 2026-04-27 12:09 | -16.14514 | 143.09733 | 29974 ft | 434 kts | 282° |
| 2026-04-27 12:09 | -16.12860 | 143.03696 | 29972 ft | 434 kts | 282° |
| 2026-04-27 12:10 | -16.11214 | 142.97664 | 29966 ft | 433 kts | 281° |
| 2026-04-27 12:10 | -16.09562 | 142.91636 | 29964 ft | 433 kts | 282° |
| 2026-04-27 12:11 | -16.07897 | 142.85619 | 29964 ft | 433 kts | 282° |
| 2026-04-27 12:11 | -16.06248 | 142.79638 | 29961 ft | 432 kts | 281° |
| 2026-04-27 12:12 | -16.04597 | 142.73627 | 29939 ft | 432 kts | 281° |
| 2026-04-27 12:12 | -16.02939 | 142.67618 | 29946 ft | 432 kts | 281° |
| 2026-04-27 12:13 | -16.01283 | 142.61614 | 29957 ft | 432 kts | 281° |
| 2026-04-27 12:13 | -15.99635 | 142.55642 | 29959 ft | 432 kts | 281° |
| 2026-04-27 12:14 | -15.97973 | 142.49632 | 29943 ft | 433 kts | 281° |
| 2026-04-27 12:14 | -15.96308 | 142.43624 | 29950 ft | 433 kts | 281° |
| 2026-04-27 12:15 | -15.94646 | 142.37616 | 29958 ft | 433 kts | 281° |
| 2026-04-27 12:15 | -15.92979 | 142.31611 | 29964 ft | 433 kts | 281° |
| 2026-04-27 12:16 | -15.91309 | 142.25604 | 29948 ft | 433 kts | 281° |
| 2026-04-27 12:16 | -15.89632 | 142.19598 | 29956 ft | 433 kts | 281° |
| 2026-04-27 12:17 | -15.87955 | 142.13587 | 29963 ft | 433 kts | 281° |
| 2026-04-27 12:17 | -15.86287 | 142.07565 | 29965 ft | 433 kts | 281° |
| 2026-04-27 12:18 | -15.84608 | 142.01551 | 29949 ft | 433 kts | 281° |
| 2026-04-27 12:18 | -15.83199 | 141.96546 | 29952 ft | 433 kts | 281° |
| 2026-04-27 12:19 | -15.81239 | 141.89563 | 29946 ft | 433 kts | 281° |
| 2026-04-27 12:19 | -15.79555 | 141.83558 | 29958 ft | 433 kts | 281° |
| 2026-04-27 12:20 | -15.77871 | 141.77554 | 29945 ft | 433 kts | 281° |
| 2026-04-27 12:20 | -15.76180 | 141.71539 | 29949 ft | 434 kts | 281° |
| 2026-04-27 12:21 | -15.74771 | 141.66539 | 29950 ft | 434 kts | 281° |
| 2026-04-27 12:21 | -15.73070 | 141.60508 | 29955 ft | 435 kts | 281° |
| 2026-04-27 12:22 | -15.71369 | 141.54482 | 29958 ft | 435 kts | 281° |
| 2026-04-27 12:22 | -15.69669 | 141.48453 | 29960 ft | 435 kts | 281° |
| 2026-04-27 12:23 | -15.67966 | 141.42428 | 29965 ft | 435 kts | 281° |
| 2026-04-27 12:23 | -15.66256 | 141.36402 | 29964 ft | 435 kts | 281° |
| 2026-04-27 12:24 | -15.64549 | 141.30381 | 29951 ft | 435 kts | 281° |
| 2026-04-27 12:24 | -15.62852 | 141.24382 | 29950 ft | 436 kts | 281° |
| 2026-04-27 12:25 | -15.61130 | 141.18338 | 29956 ft | 437 kts | 282° |
| 2026-04-27 12:25 | -15.59399 | 141.12285 | 29958 ft | 437 kts | 281° |
| 2026-04-27 12:26 | -15.57693 | 141.06275 | 29941 ft | 437 kts | 282° |
| 2026-04-27 12:26 | -15.55973 | 141.00215 | 29945 ft | 439 kts | 282° |
| 2026-04-27 12:27 | -15.54234 | 140.94140 | 29950 ft | 439 kts | 282° |
| 2026-04-27 12:27 | -15.52489 | 140.88062 | 29954 ft | 440 kts | 282° |
| 2026-04-27 12:28 | -15.50746 | 140.81972 | 29949 ft | 441 kts | 282° |
| 2026-04-27 12:28 | -15.49001 | 140.75866 | 29953 ft | 441 kts | 282° |
| 2026-04-27 12:29 | -15.47268 | 140.69808 | 29955 ft | 441 kts | 282° |
| 2026-04-27 12:29 | -15.45510 | 140.63710 | 29936 ft | 442 kts | 282° |
| 2026-04-27 12:30 | -15.43755 | 140.57604 | 29948 ft | 442 kts | 282° |
| 2026-04-27 12:30 | -15.41999 | 140.51488 | 29952 ft | 443 kts | 282° |
| 2026-04-27 12:31 | -15.40235 | 140.45365 | 29957 ft | 443 kts | 282° |
| 2026-04-27 12:31 | -15.38466 | 140.39240 | 29948 ft | 444 kts | 282° |
| 2026-04-27 12:32 | -15.36691 | 140.33104 | 29952 ft | 444 kts | 282° |
| 2026-04-27 12:32 | -15.34916 | 140.26960 | 29959 ft | 445 kts | 282° |
| 2026-04-27 12:33 | -15.33152 | 140.20859 | 29952 ft | 445 kts | 282° |
| 2026-04-27 12:33 | -15.31373 | 140.14716 | 29950 ft | 445 kts | 283° |
| 2026-04-27 12:34 | -15.29589 | 140.08570 | 29956 ft | 446 kts | 283° |
| 2026-04-27 12:34 | -15.27806 | 140.02418 | 29958 ft | 446 kts | 283° |
| 2026-04-27 12:35 | -15.26013 | 139.96261 | 29946 ft | 446 kts | 283° |
| 2026-04-27 12:35 | -15.24226 | 139.90096 | 29949 ft | 447 kts | 283° |
| 2026-04-27 12:36 | -15.22428 | 139.83933 | 29952 ft | 447 kts | 283° |
| 2026-04-27 12:36 | -15.20624 | 139.77768 | 29963 ft | 447 kts | 283° |
| 2026-04-27 12:37 | -15.18841 | 139.71646 | 29957 ft | 447 kts | 283° |
| 2026-04-27 12:37 | -15.17033 | 139.65472 | 29955 ft | 448 kts | 283° |
| 2026-04-27 12:38 | -15.15232 | 139.59296 | 29954 ft | 448 kts | 283° |
| 2026-04-27 12:38 | -15.13425 | 139.53117 | 29963 ft | 448 kts | 283° |
| 2026-04-27 12:39 | -15.11607 | 139.46931 | 29958 ft | 449 kts | 283° |
| 2026-04-27 12:39 | -15.09790 | 139.40738 | 29955 ft | 450 kts | 283° |
| 2026-04-27 12:40 | -15.07982 | 139.34583 | 29964 ft | 450 kts | 283° |
| 2026-04-27 12:40 | -15.06153 | 139.28377 | 29969 ft | 450 kts | 283° |
| 2026-04-27 12:41 | -15.04325 | 139.22180 | 29969 ft | 450 kts | 283° |
| 2026-04-27 12:41 | -15.02495 | 139.15980 | 29969 ft | 450 kts | 283° |
| 2026-04-27 12:42 | -15.00669 | 139.09785 | 29968 ft | 450 kts | 283° |
| 2026-04-27 12:42 | -14.98839 | 139.03588 | 29960 ft | 451 kts | 283° |
| 2026-04-27 12:43 | -14.97017 | 138.97422 | 29961 ft | 451 kts | 283° |
| 2026-04-27 12:43 | -14.95184 | 138.91219 | 29965 ft | 451 kts | 283° |
| 2026-04-27 12:44 | -14.93341 | 138.85008 | 29963 ft | 451 kts | 283° |
| 2026-04-27 12:44 | -14.91500 | 138.78793 | 29959 ft | 452 kts | 283° |
| 2026-04-27 12:45 | -14.89651 | 138.72581 | 29963 ft | 452 kts | 283° |
| 2026-04-27 12:45 | -14.87792 | 138.66359 | 29965 ft | 452 kts | 283° |
| 2026-04-27 12:46 | -14.85943 | 138.60142 | 29958 ft | 453 kts | 283° |
| 2026-04-27 12:46 | -14.84095 | 138.53919 | 29964 ft | 453 kts | 283° |
| 2026-04-27 12:47 | -14.82240 | 138.47691 | 29972 ft | 454 kts | 283° |
| 2026-04-27 12:47 | -14.80372 | 138.41454 | 29957 ft | 454 kts | 283° |
| 2026-04-27 12:48 | -14.78517 | 138.35262 | 29959 ft | 454 kts | 283° |
| 2026-04-27 12:48 | -14.76645 | 138.29028 | 29963 ft | 454 kts | 283° |
| 2026-04-27 12:49 | -14.74778 | 138.22787 | 29968 ft | 455 kts | 283° |
| 2026-04-27 12:49 | -14.72903 | 138.16541 | 29960 ft | 455 kts | 283° |
| 2026-04-27 12:50 | -14.71023 | 138.10281 | 29963 ft | 456 kts | 283° |
| 2026-04-27 12:50 | -14.69145 | 138.04030 | 29966 ft | 456 kts | 283° |
| 2026-04-27 12:51 | -14.67266 | 137.97777 | 29956 ft | 456 kts | 284° |
| 2026-04-27 12:51 | -14.65380 | 137.91514 | 29961 ft | 456 kts | 284° |
| 2026-04-27 12:52 | -14.63489 | 137.85247 | 29968 ft | 457 kts | 284° |
| 2026-04-27 12:52 | -14.61601 | 137.79027 | 29967 ft | 457 kts | 284° |
| 2026-04-27 12:53 | -14.58752 | 137.69623 | 29962 ft | 457 kts | 284° |
| 2026-04-27 12:53 | -14.56853 | 137.63347 | 29961 ft | 458 kts | 284° |
| 2026-04-27 12:54 | -14.55279 | 137.58128 | 29960 ft | 458 kts | 284° |
| 2026-04-27 12:54 | -14.54653 | 137.56049 | 29958 ft | 458 kts | 284° |
| 2026-04-27 12:55 | -14.49918 | 137.40457 | 29970 ft | 459 kts | 284° |
| 2026-04-27 12:56 | -14.47289 | 137.31826 | 29957 ft | 460 kts | 284° |
| 2026-04-27 12:56 | -14.45367 | 137.25526 | 29968 ft | 460 kts | 284° |
| 2026-04-27 12:57 | -14.43448 | 137.19227 | 29960 ft | 460 kts | 284° |
| 2026-04-27 12:57 | -14.41525 | 137.12929 | 29963 ft | 460 kts | 284° |
| 2026-04-27 12:58 | -14.39598 | 137.06630 | 29967 ft | 460 kts | 284° |
| 2026-04-27 12:58 | -14.37674 | 137.00327 | 29964 ft | 460 kts | 284° |
| 2026-04-27 12:59 | -14.35743 | 136.94033 | 29958 ft | 460 kts | 284° |
| 2026-04-27 12:59 | -14.33807 | 136.87733 | 29954 ft | 461 kts | 284° |
| 2026-04-27 13:00 | -14.31872 | 136.81428 | 29966 ft | 461 kts | 284° |
| 2026-04-27 13:00 | -14.30259 | 136.76187 | 29959 ft | 461 kts | 284° |
| 2026-04-27 13:01 | -14.28315 | 136.69865 | 29965 ft | 462 kts | 284° |
| 2026-04-27 13:01 | -14.26057 | 136.62520 | 29964 ft | 463 kts | 284° |
| 2026-04-27 13:02 | -14.24427 | 136.57223 | 29965 ft | 463 kts | 284° |
| 2026-04-27 13:02 | -14.22486 | 136.50938 | 29962 ft | 463 kts | 284° |
| 2026-04-27 13:03 | -14.20534 | 136.44602 | 29958 ft | 464 kts | 284° |
| 2026-04-27 13:03 | -14.18584 | 136.38268 | 29962 ft | 464 kts | 284° |
| 2026-04-27 13:04 | -14.16622 | 136.31933 | 29962 ft | 464 kts | 285° |
| 2026-04-27 13:04 | -14.14656 | 136.25590 | 29962 ft | 465 kts | 285° |
| 2026-04-27 13:05 | -14.12688 | 136.19246 | 29961 ft | 465 kts | 285° |
| 2026-04-27 13:05 | -14.10715 | 136.12895 | 29962 ft | 465 kts | 285° |
| 2026-04-27 13:06 | -14.08735 | 136.06542 | 29961 ft | 466 kts | 285° |
| 2026-04-27 13:06 | -14.06754 | 136.00186 | 29964 ft | 466 kts | 285° |
| 2026-04-27 13:07 | -14.04780 | 135.93826 | 29960 ft | 466 kts | 285° |
| 2026-04-27 13:07 | -14.02806 | 135.87466 | 29961 ft | 467 kts | 285° |
| 2026-04-27 13:08 | -14.00832 | 135.81135 | 29959 ft | 467 kts | 285° |
| 2026-04-27 13:08 | -13.98844 | 135.74767 | 29959 ft | 467 kts | 285° |
| 2026-04-27 13:09 | -13.96842 | 135.68392 | 29961 ft | 468 kts | 285° |
| 2026-04-27 13:09 | -13.94847 | 135.62013 | 29965 ft | 468 kts | 285° |
| 2026-04-27 13:10 | -13.93273 | 135.55528 | 29961 ft | 466 kts | 279° |
| 2026-04-27 13:10 | -13.91963 | 135.48982 | 29964 ft | 467 kts | 279° |
| 2026-04-27 13:11 | -13.90640 | 135.42428 | 29967 ft | 467 kts | 279° |
| 2026-04-27 13:11 | -13.89319 | 135.35873 | 29966 ft | 468 kts | 280° |
| 2026-04-27 13:12 | -13.87994 | 135.29313 | 29968 ft | 468 kts | 280° |
| 2026-04-27 13:12 | -13.86667 | 135.22744 | 29968 ft | 469 kts | 280° |
| 2026-04-27 13:13 | -13.85339 | 135.16223 | 29971 ft | 469 kts | 280° |
| 2026-04-27 13:13 | -13.83997 | 135.09643 | 29971 ft | 469 kts | 280° |
| 2026-04-27 13:14 | -13.82663 | 135.03074 | 29973 ft | 469 kts | 280° |
| 2026-04-27 13:14 | -13.81326 | 134.96508 | 29972 ft | 469 kts | 280° |
| 2026-04-27 13:15 | -13.79976 | 134.89925 | 29971 ft | 470 kts | 280° |
| 2026-04-27 13:15 | -13.78640 | 134.83337 | 29970 ft | 470 kts | 280° |
| 2026-04-27 13:16 | -13.77312 | 134.76786 | 29971 ft | 471 kts | 280° |
| 2026-04-27 13:16 | -13.75964 | 134.70191 | 29974 ft | 471 kts | 280° |
| 2026-04-27 13:17 | -13.74603 | 134.63597 | 29973 ft | 471 kts | 280° |
| 2026-04-27 13:17 | -13.73247 | 134.56990 | 29977 ft | 471 kts | 280° |
| 2026-04-27 13:18 | -13.71885 | 134.50380 | 29978 ft | 472 kts | 280° |
| 2026-04-27 13:18 | -13.70524 | 134.43780 | 29979 ft | 472 kts | 280° |
| 2026-04-27 13:19 | -13.69173 | 134.37215 | 29977 ft | 472 kts | 280° |
| 2026-04-27 13:19 | -13.67810 | 134.30614 | 29976 ft | 472 kts | 280° |
| 2026-04-27 13:20 | -13.66437 | 134.24011 | 29981 ft | 472 kts | 280° |
| 2026-04-27 13:20 | -13.65032 | 134.17414 | 29983 ft | 473 kts | 281° |
| 2026-04-27 13:21 | -13.63621 | 134.10806 | 29984 ft | 473 kts | 281° |
| 2026-04-27 13:21 | -13.62211 | 134.04197 | 29987 ft | 473 kts | 281° |
| 2026-04-27 13:22 | -13.60805 | 133.97585 | 29990 ft | 473 kts | 281° |
| 2026-04-27 13:22 | -13.59403 | 133.90980 | 29992 ft | 473 kts | 281° |
| 2026-04-27 13:23 | -13.57993 | 133.84363 | 29995 ft | 473 kts | 281° |
| 2026-04-27 13:23 | -13.56589 | 133.77797 | 29994 ft | 473 kts | 281° |
| 2026-04-27 13:24 | -13.55175 | 133.71182 | 29997 ft | 474 kts | 281° |
| 2026-04-27 13:24 | -13.53759 | 133.64571 | 29990 ft | 474 kts | 281° |
| 2026-04-27 13:25 | -13.52332 | 133.57949 | 29990 ft | 474 kts | 281° |
| 2026-04-27 13:25 | -13.50913 | 133.51324 | 29994 ft | 474 kts | 281° |
| 2026-04-27 13:26 | -13.49486 | 133.44697 | 29996 ft | 475 kts | 281° |
| 2026-04-27 13:26 | -13.48054 | 133.38069 | 29993 ft | 475 kts | 281° |
| 2026-04-27 13:27 | -13.46632 | 133.31481 | 29995 ft | 475 kts | 281° |
| 2026-04-27 13:27 | -13.45212 | 133.24850 | 29998 ft | 475 kts | 278° |
| 2026-04-27 13:28 | -13.44499 | 133.18118 | 29987 ft | 474 kts | 274° |
| 2026-04-27 13:28 | -13.43878 | 133.11370 | 29989 ft | 474 kts | 274° |
| 2026-04-27 13:29 | -13.43252 | 133.04649 | 29989 ft | 474 kts | 274° |
| 2026-04-27 13:29 | -13.42608 | 132.97902 | 29986 ft | 475 kts | 274° |
| 2026-04-27 13:30 | -13.41966 | 132.91138 | 29990 ft | 475 kts | 274° |
| 2026-04-27 13:30 | -13.41328 | 132.84376 | 29986 ft | 475 kts | 274° |
| 2026-04-27 13:31 | -13.40687 | 132.77609 | 29984 ft | 475 kts | 274° |
| 2026-04-27 13:31 | -13.40048 | 132.70892 | 29983 ft | 475 kts | 274° |
| 2026-04-27 13:32 | -13.39404 | 132.64139 | 29980 ft | 475 kts | 274° |
| 2026-04-27 13:32 | -13.38753 | 132.57381 | 29971 ft | 475 kts | 274° |
| 2026-04-27 13:33 | -13.38106 | 132.50612 | 29970 ft | 475 kts | 274° |
| 2026-04-27 13:33 | -13.37455 | 132.43855 | 29966 ft | 476 kts | 274° |
| 2026-04-27 13:34 | -13.36798 | 132.37096 | 29966 ft | 476 kts | 274° |
| 2026-04-27 13:34 | -13.36147 | 132.30328 | 29964 ft | 476 kts | 274° |
| 2026-04-27 13:35 | -13.35493 | 132.23554 | 29962 ft | 476 kts | 274° |
| 2026-04-27 13:35 | -13.34837 | 132.16776 | 29963 ft | 477 kts | 274° |
| 2026-04-27 13:36 | -13.34178 | 132.10037 | 29955 ft | 477 kts | 274° |
| 2026-04-27 13:36 | -13.33516 | 132.03253 | 29955 ft | 477 kts | 274° |
| 2026-04-27 13:37 | -13.32835 | 131.96459 | 29952 ft | 478 kts | 277° |
| 2026-04-27 13:37 | -13.30857 | 131.89936 | 29952 ft | 483 kts | 295° |
| 2026-04-27 13:38 | -13.27173 | 131.84151 | 29950 ft | 485 kts | 303° |
| 2026-04-27 13:38 | -13.23259 | 131.78496 | 29950 ft | 485 kts | 303° |
| 2026-04-27 13:39 | -13.19368 | 131.72866 | 29950 ft | 486 kts | 303° |
| 2026-04-27 13:39 | -13.15459 | 131.67207 | 29947 ft | 486 kts | 303° |
| 2026-04-27 13:40 | -13.11551 | 131.61541 | 29889 ft | 487 kts | 303° |
| 2026-04-27 13:40 | -13.09591 | 131.58708 | 29625 ft | 488 kts | 303° |
| 2026-04-27 13:40 | -13.07617 | 131.55861 | 29360 ft | 488 kts | 304° |
| 2026-04-27 13:41 | -13.05670 | 131.53054 | 29101 ft | 489 kts | 304° |
| 2026-04-27 13:41 | -13.03544 | 131.50320 | 28837 ft | 491 kts | 311° |
| 2026-04-27 13:41 | -13.01033 | 131.47933 | 28581 ft | 494 kts | 320° |
| 2026-04-27 13:41 | -12.98184 | 131.45875 | 28324 ft | 495 kts | 324° |
| 2026-04-27 13:42 | -12.95362 | 131.43919 | 28079 ft | 496 kts | 324° |
| 2026-04-27 13:42 | -12.92510 | 131.41943 | 27389 ft | 494 kts | 324° |
| 2026-04-27 13:42 | -12.89650 | 131.39955 | 26128 ft | 499 kts | 325° |
| 2026-04-27 13:42 | -12.86760 | 131.37943 | 24910 ft | 503 kts | 325° |
| 2026-04-27 13:43 | -12.83856 | 131.35919 | 23730 ft | 506 kts | 325° |
| 2026-04-27 13:43 | -12.80965 | 131.33905 | 22440 ft | 494 kts | 325° |
| 2026-04-27 13:43 | -12.78154 | 131.31952 | 20899 ft | 482 kts | 325° |
| 2026-04-27 13:43 | -12.75386 | 131.30030 | 19930 ft | 477 kts | 325° |
| 2026-04-27 13:44 | -12.73534 | 131.28745 | 19254 ft | 476 kts | 325° |
| 2026-04-27 13:44 | -12.70838 | 131.26875 | 18427 ft | 471 kts | 325° |
| 2026-04-27 13:44 | -12.68143 | 131.25006 | 17569 ft | 463 kts | 325° |
| 2026-04-27 13:44 | -12.65492 | 131.23163 | 16653 ft | 457 kts | 324° |
| 2026-04-27 13:45 | -12.63072 | 131.21098 | 15775 ft | 450 kts | 314° |
| 2026-04-27 13:45 | -12.61100 | 131.18648 | 14947 ft | 443 kts | 303° |
| 2026-04-27 13:45 | -12.59614 | 131.15933 | 13998 ft | 429 kts | 293° |
| 2026-04-27 13:45 | -12.58536 | 131.13119 | 12568 ft | 419 kts | 289° |
| 2026-04-27 13:46 | -12.57604 | 131.10386 | 11938 ft | 392 kts | 287° |
| 2026-04-27 13:46 | -12.56779 | 131.07844 | 11593 ft | 360 kts | 287° |
| 2026-04-27 13:46 | -12.56033 | 131.05507 | 11404 ft | 331 kts | 287° |
| 2026-04-27 13:46 | -12.55346 | 131.03360 | 11280 ft | 305 kts | 287° |
| 2026-04-27 13:47 | -12.54703 | 131.01371 | 11097 ft | 285 kts | 287° |
| 2026-04-27 13:47 | -12.54083 | 130.99481 | 10819 ft | 274 kts | 287° |
| 2026-04-27 13:47 | -12.53466 | 130.97615 | 10766 ft | 278 kts | 287° |
| 2026-04-27 13:47 | -12.52845 | 130.95745 | 10656 ft | 277 kts | 287° |
| 2026-04-27 13:48 | -12.52232 | 130.93906 | 10544 ft | 276 kts | 287° |
| 2026-04-27 13:48 | -12.51615 | 130.92052 | 10421 ft | 275 kts | 287° |
| 2026-04-27 13:48 | -12.51000 | 130.90206 | 10299 ft | 274 kts | 287° |
| 2026-04-27 13:48 | -12.50387 | 130.88363 | 10200 ft | 273 kts | 287° |
| 2026-04-27 13:49 | -12.49775 | 130.86530 | 10093 ft | 271 kts | 287° |
| 2026-04-27 13:49 | -12.49165 | 130.84705 | 9934 ft | 271 kts | 287° |
| 2026-04-27 13:49 | -12.48547 | 130.82861 | 9523 ft | 270 kts | 287° |
| 2026-04-27 13:49 | -12.47948 | 130.81089 | 9253 ft | 258 kts | 287° |
| 2026-04-27 13:50 | -12.47365 | 130.79363 | 8779 ft | 256 kts | 287° |
| 2026-04-27 13:50 | -12.46787 | 130.77640 | 8229 ft | 256 kts | 287° |
| 2026-04-27 13:50 | -12.46209 | 130.75916 | 7676 ft | 257 kts | 287° |
| 2026-04-27 13:50 | -12.45625 | 130.74182 | 7135 ft | 258 kts | 287° |
| 2026-04-27 13:51 | -12.45039 | 130.72443 | 6665 ft | 259 kts | 287° |
| 2026-04-27 13:51 | -12.44449 | 130.70694 | 6189 ft | 260 kts | 287° |
| 2026-04-27 13:51 | -12.43864 | 130.68964 | 6004 ft | 263 kts | 287° |
| 2026-04-27 13:51 | -12.43237 | 130.67239 | 5948 ft | 255 kts | 297° |
| 2026-04-27 13:52 | -12.42074 | 130.65923 | 5793 ft | 248 kts | 329° |
| 2026-04-27 13:52 | -12.40468 | 130.65398 | 5496 ft | 245 kts | 0° |
| 2026-04-27 13:52 | -12.38805 | 130.65734 | 5056 ft | 245 kts | 22° |
| 2026-04-27 13:52 | -12.37177 | 130.66312 | 4643 ft | 249 kts | 24° |
| 2026-04-27 13:53 | -12.35170 | 130.68719 | 3840 ft | 221 kts | 90° |
| 2026-04-27 13:53 | -12.35439 | 130.70175 | 3520 ft | 200 kts | 110° |
| 2026-04-27 13:53 | -12.35877 | 130.71456 | 3283 ft | 181 kts | 110° |
| 2026-04-27 13:54 | -12.36272 | 130.72629 | 3052 ft | 166 kts | 109° |
| 2026-04-27 13:54 | -12.36627 | 130.73704 | 2767 ft | 154 kts | 109° |
| 2026-04-27 13:54 | -12.36952 | 130.74717 | 2524 ft | 145 kts | 108° |
| 2026-04-27 13:54 | -12.37235 | 130.75683 | 2315 ft | 139 kts | 107° |
| 2026-04-27 13:55 | -12.37505 | 130.76613 | 2147 ft | 138 kts | 108° |
| 2026-04-27 13:55 | -12.37822 | 130.77549 | 1996 ft | 138 kts | 110° |
| 2026-04-27 13:55 | -12.38135 | 130.78475 | 1812 ft | 138 kts | 110° |
| 2026-04-27 13:55 | -12.38449 | 130.79402 | 1632 ft | 138 kts | 110° |
| 2026-04-27 13:56 | -12.38771 | 130.80328 | 1417 ft | 138 kts | 111° |
| 2026-04-27 13:56 | -12.39099 | 130.81257 | 1260 ft | 138 kts | 110° |
| 2026-04-27 13:56 | -12.39420 | 130.82172 | 1061 ft | 139 kts | 110° |
| 2026-04-27 13:56 | -12.39745 | 130.83099 | 843 ft | 139 kts | 109° |
| 2026-04-27 13:57 | -12.40075 | 130.84031 | 700 ft | 139 kts | 109° |
| 2026-04-27 13:57 | -12.40406 | 130.84966 | 543 ft | 140 kts | 109° |
| 2026-04-27 13:57 | -12.40725 | 130.85904 | 358 ft | 140 kts | 108° |
| 2026-04-27 13:57 | -12.41038 | 130.86838 | 124 ft | 137 kts | 108° |
| 2026-04-27 13:58 | -12.41332 | 130.87710 | 93 ft | 115 kts | 110° |
| 2026-04-27 13:58 | -12.41542 | 130.88319 | 89 ft | 66 kts | 109° |
| 2026-04-27 13:58 | -12.41665 | 130.88676 | 90 ft | 49 kts | 109° |
| 2026-04-27 13:58 | -12.41774 | 130.88998 | 91 ft | 47 kts | 109° |
| 2026-04-27 13:59 | -12.41877 | 130.89305 | 92 ft | 44 kts | 109° |
| 2026-04-27 13:59 | -12.41929 | 130.89405 | 92 ft | 2 kts | 73° |
| 2026-04-27 13:59 | -12.41905 | 130.89387 | 91 ft | 9 kts | 301° |
| 2026-04-27 13:59 | -12.41864 | 130.89266 | 93 ft | 27 kts | 289° |
| 2026-04-27 14:00 | -12.41776 | 130.89012 | 91 ft | 43 kts | 289° |
| 2026-04-27 14:00 | -12.41679 | 130.88721 | 89 ft | 45 kts | 289° |
| 2026-04-27 14:00 | -12.41574 | 130.88415 | 87 ft | 47 kts | 289° |
| 2026-04-27 14:00 | -12.41479 | 130.88125 | 89 ft | 39 kts | 289° |
| 2026-04-27 14:01 | -12.41371 | 130.88011 | 90 ft | 18 kts | 3° |
| 2026-04-27 14:01 | -12.41245 | 130.88049 | 92 ft | 20 kts | 20° |
| 2026-04-27 14:01 | -12.41107 | 130.88098 | 90 ft | 18 kts | 17° |
| 2026-04-27 14:01 | -12.41035 | 130.88015 | 91 ft | 19 kts | 288° |
| 2026-04-27 14:02 | -12.40992 | 130.87885 | 92 ft | 15 kts | 289° |
| 2026-04-27 14:02 | -12.40974 | 130.87823 | 91 ft | 6 kts | 290° |
| 2026-04-27 14:02 | -12.40961 | 130.87819 | 91 ft | 4 kts | 349° |
| 2026-04-27 14:02 | -12.40922 | 130.87825 | 90 ft | 6 kts | 20° |
| 2026-04-27 14:03 | -12.40909 | 130.87830 | 93 ft | 0 kts | 19° |